sensor_id;sensor_type;location;lat;lon;timestamp;temperature;humidity
61016;DHT22;46902;52.920;6.536;2023-10-08T00:01:08;15.00;99.90
61016;DHT22;46902;52.920;6.536;2023-10-08T00:03:43;14.90;99.90
61016;DHT22;46902;52.920;6.536;2023-10-08T00:06:23;14.90;99.90
61016;DHT22;46902;52.920;6.536;2023-10-08T00:08:49;14.90;99.90
61016;DHT22;46902;52.920;6.536;2023-10-08T00:11:15;14.90;99.90
61016;DHT22;46902;52.920;6.536;2023-10-08T00:13:43;14.90;99.90
61016;DHT22;46902;52.920;6.536;2023-10-08T00:16:11;14.80;99.90
61016;DHT22;46902;52.920;6.536;2023-10-08T00:18:41;14.90;99.90
61016;DHT22;46902;52.920;6.536;2023-10-08T00:21:14;14.80;99.90
61016;DHT22;46902;52.920;6.536;2023-10-08T00:23:39;14.80;99.90
61016;DHT22;46902;52.920;6.536;2023-10-08T00:26:10;14.70;99.90
61016;DHT22;46902;52.920;6.536;2023-10-08T00:28:36;14.80;99.90
61016;DHT22;46902;52.920;6.536;2023-10-08T00:31:02;14.80;99.90
61016;DHT22;46902;52.920;6.536;2023-10-08T00:33:37;14.70;99.90
61016;DHT22;46902;52.920;6.536;2023-10-08T00:36:03;14.60;99.90
61016;DHT22;46902;52.920;6.536;2023-10-08T00:38:43;14.70;99.90
61016;DHT22;46902;52.920;6.536;2023-10-08T00:41:16;14.70;99.90
61016;DHT22;46902;52.920;6.536;2023-10-08T00:43:42;14.70;99.90
61016;DHT22;46902;52.920;6.536;2023-10-08T00:46:10;14.70;99.90
61016;DHT22;46902;52.920;6.536;2023-10-08T00:48:53;14.60;99.90
61016;DHT22;46902;52.920;6.536;2023-10-08T00:51:23;14.60;99.90
61016;DHT22;46902;52.920;6.536;2023-10-08T00:53:54;14.60;99.90
61016;DHT22;46902;52.920;6.536;2023-10-08T00:56:25;14.50;99.90
61016;DHT22;46902;52.920;6.536;2023-10-08T00:58:55;14.40;99.90
61016;DHT22;46902;52.920;6.536;2023-10-08T01:01:23;14.40;99.90
61016;DHT22;46902;52.920;6.536;2023-10-08T01:03:51;14.50;99.90
61016;DHT22;46902;52.920;6.536;2023-10-08T01:06:17;14.40;99.90
61016;DHT22;46902;52.920;6.536;2023-10-08T01:08:47;14.50;99.90
61016;DHT22;46902;52.920;6.536;2023-10-08T01:11:24;14.40;99.90
61016;DHT22;46902;52.920;6.536;2023-10-08T01:14:11;14.40;99.90
61016;DHT22;46902;52.920;6.536;2023-10-08T01:16:37;14.30;99.90
61016;DHT22;46902;52.920;6.536;2023-10-08T01:19:04;14.30;99.90
61016;DHT22;46902;52.920;6.536;2023-10-08T01:21:38;14.30;99.90
61016;DHT22;46902;52.920;6.536;2023-10-08T01:24:05;14.30;99.90
61016;DHT22;46902;52.920;6.536;2023-10-08T01:26:33;14.30;99.90
61016;DHT22;46902;52.920;6.536;2023-10-08T01:28:59;14.30;99.90
61016;DHT22;46902;52.920;6.536;2023-10-08T01:31:29;14.30;99.90
61016;DHT22;46902;52.920;6.536;2023-10-08T01:33:55;14.30;99.90
61016;DHT22;46902;52.920;6.536;2023-10-08T01:36:25;14.30;99.90
61016;DHT22;46902;52.920;6.536;2023-10-08T01:38:51;14.30;99.90
61016;DHT22;46902;52.920;6.536;2023-10-08T01:41:18;14.30;99.90
61016;DHT22;46902;52.920;6.536;2023-10-08T01:43:45;14.30;99.90
61016;DHT22;46902;52.920;6.536;2023-10-08T01:46:11;14.30;99.90
61016;DHT22;46902;52.920;6.536;2023-10-08T01:48:38;14.30;99.90
61016;DHT22;46902;52.920;6.536;2023-10-08T01:51:05;14.30;99.90
61016;DHT22;46902;52.920;6.536;2023-10-08T01:53:37;14.30;99.90
61016;DHT22;46902;52.920;6.536;2023-10-08T01:56:04;14.20;99.90
61016;DHT22;46902;52.920;6.536;2023-10-08T01:58:30;14.20;99.90
61016;DHT22;46902;52.920;6.536;2023-10-08T02:00:55;14.20;99.90
61016;DHT22;46902;52.920;6.536;2023-10-08T02:03:26;14.20;99.90
61016;DHT22;46902;52.920;6.536;2023-10-08T02:05:53;14.30;99.90
61016;DHT22;46902;52.920;6.536;2023-10-08T02:08:20;14.30;99.90
61016;DHT22;46902;52.920;6.536;2023-10-08T02:10:46;14.30;99.90
61016;DHT22;46902;52.920;6.536;2023-10-08T02:13:14;14.30;99.90
61016;DHT22;46902;52.920;6.536;2023-10-08T02:15:51;14.30;99.90
61016;DHT22;46902;52.920;6.536;2023-10-08T02:18:20;14.30;99.90
61016;DHT22;46902;52.920;6.536;2023-10-08T02:20:46;14.30;99.90
61016;DHT22;46902;52.920;6.536;2023-10-08T02:23:12;14.30;99.90
61016;DHT22;46902;52.920;6.536;2023-10-08T02:25:38;14.30;99.90
61016;DHT22;46902;52.920;6.536;2023-10-08T02:28:08;14.20;99.90
61016;DHT22;46902;52.920;6.536;2023-10-08T02:30:35;14.20;99.90
61016;DHT22;46902;52.920;6.536;2023-10-08T02:33:02;14.30;99.90
61016;DHT22;46902;52.920;6.536;2023-10-08T02:35:28;14.20;99.90
61016;DHT22;46902;52.920;6.536;2023-10-08T02:37:53;14.20;99.90
61016;DHT22;46902;52.920;6.536;2023-10-08T02:40:20;14.20;99.90
61016;DHT22;46902;52.920;6.536;2023-10-08T02:42:53;14.20;99.90
61016;DHT22;46902;52.920;6.536;2023-10-08T02:45:25;14.20;99.90
61016;DHT22;46902;52.920;6.536;2023-10-08T02:47:51;14.10;99.90
61016;DHT22;46902;52.920;6.536;2023-10-08T02:50:21;14.20;99.90
61016;DHT22;46902;52.920;6.536;2023-10-08T02:52:48;14.20;99.90
61016;DHT22;46902;52.920;6.536;2023-10-08T02:55:18;14.20;99.90
61016;DHT22;46902;52.920;6.536;2023-10-08T02:58:02;14.20;99.90
61016;DHT22;46902;52.920;6.536;2023-10-08T03:00:28;14.20;99.90
61016;DHT22;46902;52.920;6.536;2023-10-08T03:03:01;14.10;99.90
61016;DHT22;46902;52.920;6.536;2023-10-08T03:05:32;14.10;99.90
61016;DHT22;46902;52.920;6.536;2023-10-08T03:08:04;14.10;99.90
61016;DHT22;46902;52.920;6.536;2023-10-08T03:10:37;14.10;99.90
61016;DHT22;46902;52.920;6.536;2023-10-08T03:13:04;14.10;99.90
61016;DHT22;46902;52.920;6.536;2023-10-08T03:15:35;14.10;99.90
61016;DHT22;46902;52.920;6.536;2023-10-08T03:18:15;14.10;99.90
61016;DHT22;46902;52.920;6.536;2023-10-08T03:20:41;14.10;99.90
61016;DHT22;46902;52.920;6.536;2023-10-08T03:23:13;14.10;99.90
61016;DHT22;46902;52.920;6.536;2023-10-08T03:25:56;14.00;99.90
61016;DHT22;46902;52.920;6.536;2023-10-08T03:28:54;14.10;99.90
61016;DHT22;46902;52.920;6.536;2023-10-08T03:31:23;14.00;99.90
61016;DHT22;46902;52.920;6.536;2023-10-08T03:34:10;14.00;99.90
61016;DHT22;46902;52.920;6.536;2023-10-08T03:36:39;14.10;99.90
61016;DHT22;46902;52.920;6.536;2023-10-08T03:39:12;14.10;99.90
61016;DHT22;46902;52.920;6.536;2023-10-08T03:41:43;14.10;99.90
61016;DHT22;46902;52.920;6.536;2023-10-08T03:44:23;14.00;99.90
61016;DHT22;46902;52.920;6.536;2023-10-08T03:46:49;14.00;99.90
61016;DHT22;46902;52.920;6.536;2023-10-08T03:49:17;14.00;99.90
61016;DHT22;46902;52.920;6.536;2023-10-08T03:51:46;14.10;99.90
61016;DHT22;46902;52.920;6.536;2023-10-08T03:54:13;14.00;99.90
61016;DHT22;46902;52.920;6.536;2023-10-08T03:56:43;14.00;99.90
61016;DHT22;46902;52.920;6.536;2023-10-08T03:59:16;14.00;99.90
61016;DHT22;46902;52.920;6.536;2023-10-08T04:02:01;14.00;99.90
61016;DHT22;46902;52.920;6.536;2023-10-08T04:04:41;14.00;99.90
61016;DHT22;46902;52.920;6.536;2023-10-08T04:07:23;14.00;99.90
61016;DHT22;46902;52.920;6.536;2023-10-08T04:09:59;14.00;99.90
61016;DHT22;46902;52.920;6.536;2023-10-08T04:12:34;14.00;99.90
61016;DHT22;46902;52.920;6.536;2023-10-08T04:15:04;14.00;99.90
61016;DHT22;46902;52.920;6.536;2023-10-08T04:17:33;14.00;99.90
61016;DHT22;46902;52.920;6.536;2023-10-08T04:20:13;13.90;99.90
61016;DHT22;46902;52.920;6.536;2023-10-08T04:22:58;13.90;99.90
61016;DHT22;46902;52.920;6.536;2023-10-08T04:25:27;13.90;99.90
61016;DHT22;46902;52.920;6.536;2023-10-08T04:27:54;13.90;99.90
61016;DHT22;46902;52.920;6.536;2023-10-08T04:30:27;13.90;99.90
61016;DHT22;46902;52.920;6.536;2023-10-08T04:33:03;13.90;99.90
61016;DHT22;46902;52.920;6.536;2023-10-08T04:35:36;13.90;99.90
61016;DHT22;46902;52.920;6.536;2023-10-08T04:38:05;13.90;99.90
61016;DHT22;46902;52.920;6.536;2023-10-08T04:40:35;13.90;99.90
61016;DHT22;46902;52.920;6.536;2023-10-08T04:43:08;13.90;99.90
61016;DHT22;46902;52.920;6.536;2023-10-08T04:45:36;13.80;99.90
61016;DHT22;46902;52.920;6.536;2023-10-08T04:48:04;13.90;99.90
61016;DHT22;46902;52.920;6.536;2023-10-08T04:50:37;14.00;99.90
61016;DHT22;46902;52.920;6.536;2023-10-08T04:53:03;13.90;99.90
61016;DHT22;46902;52.920;6.536;2023-10-08T04:55:36;13.90;99.90
61016;DHT22;46902;52.920;6.536;2023-10-08T04:58:07;13.90;99.90
61016;DHT22;46902;52.920;6.536;2023-10-08T05:00:37;13.80;99.90
61016;DHT22;46902;52.920;6.536;2023-10-08T05:03:19;13.90;99.90
61016;DHT22;46902;52.920;6.536;2023-10-08T05:05:46;13.90;99.90
61016;DHT22;46902;52.920;6.536;2023-10-08T05:08:33;13.90;99.90
61016;DHT22;46902;52.920;6.536;2023-10-08T05:11:13;13.90;99.90
61016;DHT22;46902;52.920;6.536;2023-10-08T05:14:11;13.80;99.90
61016;DHT22;46902;52.920;6.536;2023-10-08T05:16:55;13.90;99.90
61016;DHT22;46902;52.920;6.536;2023-10-08T05:19:36;13.90;99.90
61016;DHT22;46902;52.920;6.536;2023-10-08T05:22:17;13.80;99.90
61016;DHT22;46902;52.920;6.536;2023-10-08T05:24:49;13.80;99.90
61016;DHT22;46902;52.920;6.536;2023-10-08T05:27:34;13.80;99.90
61016;DHT22;46902;52.920;6.536;2023-10-08T05:30:06;13.80;99.90
61016;DHT22;46902;52.920;6.536;2023-10-08T05:32:45;13.80;99.90
61016;DHT22;46902;52.920;6.536;2023-10-08T05:35:29;13.80;99.90
61016;DHT22;46902;52.920;6.536;2023-10-08T05:38:11;13.80;99.90
61016;DHT22;46902;52.920;6.536;2023-10-08T05:41:04;13.80;99.90
61016;DHT22;46902;52.920;6.536;2023-10-08T05:43:32;13.80;99.90
61016;DHT22;46902;52.920;6.536;2023-10-08T05:46:13;13.80;99.90
61016;DHT22;46902;52.920;6.536;2023-10-08T05:48:44;13.80;99.90
61016;DHT22;46902;52.920;6.536;2023-10-08T05:51:29;13.80;99.90
61016;DHT22;46902;52.920;6.536;2023-10-08T05:54:24;13.70;99.90
61016;DHT22;46902;52.920;6.536;2023-10-08T05:59:41;13.80;99.90
61016;DHT22;46902;52.920;6.536;2023-10-08T06:02:22;13.80;99.90
61016;DHT22;46902;52.920;6.536;2023-10-08T06:05:13;13.80;99.90
61016;DHT22;46902;52.920;6.536;2023-10-08T06:07:42;13.70;99.90
61016;DHT22;46902;52.920;6.536;2023-10-08T06:10:17;13.80;99.90
61016;DHT22;46902;52.920;6.536;2023-10-08T06:13:13;13.80;99.90
61016;DHT22;46902;52.920;6.536;2023-10-08T06:18:25;13.80;99.90
61016;DHT22;46902;52.920;6.536;2023-10-08T06:21:02;13.80;99.90
61016;DHT22;46902;52.920;6.536;2023-10-08T06:23:34;13.80;99.90
61016;DHT22;46902;52.920;6.536;2023-10-08T06:26:04;13.80;99.90
61016;DHT22;46902;52.920;6.536;2023-10-08T06:28:36;13.80;99.90
61016;DHT22;46902;52.920;6.536;2023-10-08T06:31:03;13.80;99.90
61016;DHT22;46902;52.920;6.536;2023-10-08T06:33:32;13.80;99.90
61016;DHT22;46902;52.920;6.536;2023-10-08T06:36:03;13.80;99.90
61016;DHT22;46902;52.920;6.536;2023-10-08T06:38:32;13.90;99.90
61016;DHT22;46902;52.920;6.536;2023-10-08T06:41:02;13.90;99.90
61016;DHT22;46902;52.920;6.536;2023-10-08T06:43:35;13.90;99.90
61016;DHT22;46902;52.920;6.536;2023-10-08T06:46:02;13.90;99.90
61016;DHT22;46902;52.920;6.536;2023-10-08T06:48:28;14.00;99.90
61016;DHT22;46902;52.920;6.536;2023-10-08T06:50:55;14.00;99.90
61016;DHT22;46902;52.920;6.536;2023-10-08T06:53:24;14.00;99.90
61016;DHT22;46902;52.920;6.536;2023-10-08T06:55:49;14.00;99.90
61016;DHT22;46902;52.920;6.536;2023-10-08T06:58:25;14.00;99.90
61016;DHT22;46902;52.920;6.536;2023-10-08T07:00:52;14.00;99.90
61016;DHT22;46902;52.920;6.536;2023-10-08T07:03:18;14.00;99.90
61016;DHT22;46902;52.920;6.536;2023-10-08T07:05:45;14.00;99.90
61016;DHT22;46902;52.920;6.536;2023-10-08T07:08:30;14.00;99.90
61016;DHT22;46902;52.920;6.536;2023-10-08T07:11:02;14.00;99.90
61016;DHT22;46902;52.920;6.536;2023-10-08T07:13:33;14.00;99.90
61016;DHT22;46902;52.920;6.536;2023-10-08T07:16:01;14.00;99.90
61016;DHT22;46902;52.920;6.536;2023-10-08T07:18:29;14.10;99.90
61016;DHT22;46902;52.920;6.536;2023-10-08T07:20:57;14.10;99.90
61016;DHT22;46902;52.920;6.536;2023-10-08T07:23:27;14.10;99.90
61016;DHT22;46902;52.920;6.536;2023-10-08T07:28:25;14.20;99.90
61016;DHT22;46902;52.920;6.536;2023-10-08T07:30:52;14.20;99.90
61016;DHT22;46902;52.920;6.536;2023-10-08T07:33:18;14.40;99.90
61016;DHT22;46902;52.920;6.536;2023-10-08T07:35:47;14.40;99.90
61016;DHT22;46902;52.920;6.536;2023-10-08T07:38:40;14.40;99.90
61016;DHT22;46902;52.920;6.536;2023-10-08T07:41:13;14.40;99.90
61016;DHT22;46902;52.920;6.536;2023-10-08T07:43:43;14.40;99.90
61016;DHT22;46902;52.920;6.536;2023-10-08T07:46:10;14.40;99.90
61016;DHT22;46902;52.920;6.536;2023-10-08T07:48:36;14.40;99.90
61016;DHT22;46902;52.920;6.536;2023-10-08T07:51:08;14.40;99.90
61016;DHT22;46902;52.920;6.536;2023-10-08T07:53:33;14.50;99.90
61016;DHT22;46902;52.920;6.536;2023-10-08T07:56:07;14.50;99.90
61016;DHT22;46902;52.920;6.536;2023-10-08T07:58:34;14.50;99.90
61016;DHT22;46902;52.920;6.536;2023-10-08T08:01:05;14.60;99.90
61016;DHT22;46902;52.920;6.536;2023-10-08T08:03:32;14.60;99.90
61016;DHT22;46902;52.920;6.536;2023-10-08T08:06:05;14.60;99.90
61016;DHT22;46902;52.920;6.536;2023-10-08T08:08:35;14.70;99.90
61016;DHT22;46902;52.920;6.536;2023-10-08T08:11:05;14.80;99.90
61016;DHT22;46902;52.920;6.536;2023-10-08T08:13:36;14.90;99.90
61016;DHT22;46902;52.920;6.536;2023-10-08T08:16:02;14.90;99.90
61016;DHT22;46902;52.920;6.536;2023-10-08T08:18:48;14.90;99.90
61016;DHT22;46902;52.920;6.536;2023-10-08T08:21:24;14.90;99.90
61016;DHT22;46902;52.920;6.536;2023-10-08T08:23:51;14.90;99.90
61016;DHT22;46902;52.920;6.536;2023-10-08T08:26:23;14.90;99.90
61016;DHT22;46902;52.920;6.536;2023-10-08T08:28:56;14.90;99.90
61016;DHT22;46902;52.920;6.536;2023-10-08T08:31:23;15.00;99.90
61016;DHT22;46902;52.920;6.536;2023-10-08T08:33:49;15.00;99.90
61016;DHT22;46902;52.920;6.536;2023-10-08T08:36:26;15.00;99.90
61016;DHT22;46902;52.920;6.536;2023-10-08T08:38:52;15.10;99.90
61016;DHT22;46902;52.920;6.536;2023-10-08T08:41:18;15.20;99.90
61016;DHT22;46902;52.920;6.536;2023-10-08T08:43:48;15.30;99.90
61016;DHT22;46902;52.920;6.536;2023-10-08T08:46:14;15.50;99.90
61016;DHT22;46902;52.920;6.536;2023-10-08T08:48:42;15.70;99.90
61016;DHT22;46902;52.920;6.536;2023-10-08T08:51:07;15.90;99.90
61016;DHT22;46902;52.920;6.536;2023-10-08T08:53:38;16.00;99.90
61016;DHT22;46902;52.920;6.536;2023-10-08T08:56:06;16.20;99.90
61016;DHT22;46902;52.920;6.536;2023-10-08T08:58:35;16.60;99.90
61016;DHT22;46902;52.920;6.536;2023-10-08T09:01:01;16.70;99.90
61016;DHT22;46902;52.920;6.536;2023-10-08T09:03:29;16.50;99.90
61016;DHT22;46902;52.920;6.536;2023-10-08T09:05:59;16.40;99.90
61016;DHT22;46902;52.920;6.536;2023-10-08T09:08:28;16.30;99.90
61016;DHT22;46902;52.920;6.536;2023-10-08T09:10:59;16.80;99.90
61016;DHT22;46902;52.920;6.536;2023-10-08T09:13:27;17.90;99.90
61016;DHT22;46902;52.920;6.536;2023-10-08T09:16:11;18.50;99.90
61016;DHT22;46902;52.920;6.536;2023-10-08T09:18:37;18.60;99.90
61016;DHT22;46902;52.920;6.536;2023-10-08T09:21:15;18.30;99.90
61016;DHT22;46902;52.920;6.536;2023-10-08T09:23:49;18.10;99.90
61016;DHT22;46902;52.920;6.536;2023-10-08T09:26:16;18.00;99.90
61016;DHT22;46902;52.920;6.536;2023-10-08T09:28:47;18.30;99.90
61016;DHT22;46902;52.920;6.536;2023-10-08T09:31:14;18.60;99.90
61016;DHT22;46902;52.920;6.536;2023-10-08T09:33:40;19.10;99.90
61016;DHT22;46902;52.920;6.536;2023-10-08T09:36:06;19.70;99.90
61016;DHT22;46902;52.920;6.536;2023-10-08T09:38:37;20.10;99.90
61016;DHT22;46902;52.920;6.536;2023-10-08T09:41:03;20.70;99.90
61016;DHT22;46902;52.920;6.536;2023-10-08T09:43:32;21.20;98.70
61016;DHT22;46902;52.920;6.536;2023-10-08T09:46:18;21.40;97.00
61016;DHT22;46902;52.920;6.536;2023-10-08T09:48:51;21.60;95.40
61016;DHT22;46902;52.920;6.536;2023-10-08T09:51:20;22.00;92.50
61016;DHT22;46902;52.920;6.536;2023-10-08T09:54:03;22.10;91.60
61016;DHT22;46902;52.920;6.536;2023-10-08T09:56:31;22.20;90.50
61016;DHT22;46902;52.920;6.536;2023-10-08T09:58:58;22.40;89.70
61016;DHT22;46902;52.920;6.536;2023-10-08T10:01:25;22.70;88.00
61016;DHT22;46902;52.920;6.536;2023-10-08T10:03:52;23.30;87.40
61016;DHT22;46902;52.920;6.536;2023-10-08T10:06:18;23.90;81.90
61016;DHT22;46902;52.920;6.536;2023-10-08T10:08:45;24.40;79.00
61016;DHT22;46902;52.920;6.536;2023-10-08T10:11:11;24.80;76.20
61016;DHT22;46902;52.920;6.536;2023-10-08T10:13:42;24.80;74.80
61016;DHT22;46902;52.920;6.536;2023-10-08T10:16:10;24.80;74.20
61016;DHT22;46902;52.920;6.536;2023-10-08T10:18:38;25.10;73.30
61016;DHT22;46902;52.920;6.536;2023-10-08T10:23:46;25.40;67.90
61016;DHT22;46902;52.920;6.536;2023-10-08T10:31:53;23.20;70.50
61016;DHT22;46902;52.920;6.536;2023-10-08T10:34:24;22.10;73.10
61016;DHT22;46902;52.920;6.536;2023-10-08T10:36:54;21.40;76.20
61016;DHT22;46902;52.920;6.536;2023-10-08T10:39:35;20.80;79.70
61016;DHT22;46902;52.920;6.536;2023-10-08T10:42:05;20.40;82.10
61016;DHT22;46902;52.920;6.536;2023-10-08T10:44:33;20.70;83.20
61016;DHT22;46902;52.920;6.536;2023-10-08T10:47:02;21.10;81.70
61016;DHT22;46902;52.920;6.536;2023-10-08T10:49:45;21.50;80.90
61016;DHT22;46902;52.920;6.536;2023-10-08T10:52:17;22.00;79.10
61016;DHT22;46902;52.920;6.536;2023-10-08T10:55:10;22.50;75.80
61016;DHT22;46902;52.920;6.536;2023-10-08T10:57:42;22.80;75.40
61016;DHT22;46902;52.920;6.536;2023-10-08T11:00:09;22.90;75.20
61016;DHT22;46902;52.920;6.536;2023-10-08T11:03:00;22.90;74.20
61016;DHT22;46902;52.920;6.536;2023-10-08T11:05:37;22.80;73.60
61016;DHT22;46902;52.920;6.536;2023-10-08T11:08:06;22.70;73.20
61016;DHT22;46902;52.920;6.536;2023-10-08T11:10:39;22.60;75.00
61016;DHT22;46902;52.920;6.536;2023-10-08T11:13:08;22.50;73.10
61016;DHT22;46902;52.920;6.536;2023-10-08T11:15:44;22.30;75.10
61016;DHT22;46902;52.920;6.536;2023-10-08T11:18:33;22.60;74.60
61016;DHT22;46902;52.920;6.536;2023-10-08T11:21:25;23.00;72.60
61016;DHT22;46902;52.920;6.536;2023-10-08T11:23:52;22.80;71.50
61016;DHT22;46902;52.920;6.536;2023-10-08T11:26:19;22.40;72.60
61016;DHT22;46902;52.920;6.536;2023-10-08T11:28:45;22.00;73.60
61016;DHT22;46902;52.920;6.536;2023-10-08T11:31:17;21.70;73.90
61016;DHT22;46902;52.920;6.536;2023-10-08T11:33:45;21.40;75.30
61016;DHT22;46902;52.920;6.536;2023-10-08T11:36:21;21.20;76.40
61016;DHT22;46902;52.920;6.536;2023-10-08T11:39:11;21.00;77.20
61016;DHT22;46902;52.920;6.536;2023-10-08T11:41:58;20.80;78.80
61016;DHT22;46902;52.920;6.536;2023-10-08T11:44:33;20.80;79.40
61016;DHT22;46902;52.920;6.536;2023-10-08T11:47:04;21.20;79.50
61016;DHT22;46902;52.920;6.536;2023-10-08T11:49:38;21.70;79.00
61016;DHT22;46902;52.920;6.536;2023-10-08T11:52:12;22.10;77.80
61016;DHT22;46902;52.920;6.536;2023-10-08T11:54:41;22.50;76.10
61016;DHT22;46902;52.920;6.536;2023-10-08T11:57:07;22.90;74.30
61016;DHT22;46902;52.920;6.536;2023-10-08T11:59:34;23.10;72.10
61016;DHT22;46902;52.920;6.536;2023-10-08T12:02:08;23.30;69.80
61016;DHT22;46902;52.920;6.536;2023-10-08T12:04:33;23.60;69.10
61016;DHT22;46902;52.920;6.536;2023-10-08T12:06:59;23.70;68.40
61016;DHT22;46902;52.920;6.536;2023-10-08T12:09:28;23.60;69.60
61016;DHT22;46902;52.920;6.536;2023-10-08T12:11:54;23.30;69.10
61016;DHT22;46902;52.920;6.536;2023-10-08T12:14:21;22.90;69.20
61016;DHT22;46902;52.920;6.536;2023-10-08T12:16:52;22.50;70.60
61016;DHT22;46902;52.920;6.536;2023-10-08T12:19:17;22.20;72.00
61016;DHT22;46902;52.920;6.536;2023-10-08T12:21:44;22.00;73.00
61016;DHT22;46902;52.920;6.536;2023-10-08T12:24:12;21.80;73.20
61016;DHT22;46902;52.920;6.536;2023-10-08T12:26:38;21.70;74.00
61016;DHT22;46902;52.920;6.536;2023-10-08T12:29:11;21.60;74.50
61016;DHT22;46902;52.920;6.536;2023-10-08T12:31:40;21.50;74.70
61016;DHT22;46902;52.920;6.536;2023-10-08T12:34:05;21.30;75.50
61016;DHT22;46902;52.920;6.536;2023-10-08T12:36:31;21.20;75.80
61016;DHT22;46902;52.920;6.536;2023-10-08T12:39:01;21.00;76.80
61016;DHT22;46902;52.920;6.536;2023-10-08T12:41:34;21.00;77.50
61016;DHT22;46902;52.920;6.536;2023-10-08T12:44:04;21.10;76.60
61016;DHT22;46902;52.920;6.536;2023-10-08T12:46:33;21.30;75.90
61016;DHT22;46902;52.920;6.536;2023-10-08T12:48:59;21.60;74.90
61016;DHT22;46902;52.920;6.536;2023-10-08T12:51:27;21.80;75.40
61016;DHT22;46902;52.920;6.536;2023-10-08T12:53:57;22.00;74.40
61016;DHT22;46902;52.920;6.536;2023-10-08T12:56:25;22.20;73.10
61016;DHT22;46902;52.920;6.536;2023-10-08T12:58:57;22.30;72.40
61016;DHT22;46902;52.920;6.536;2023-10-08T13:01:23;22.50;72.70
61016;DHT22;46902;52.920;6.536;2023-10-08T13:03:49;22.70;71.60
61016;DHT22;46902;52.920;6.536;2023-10-08T13:06:17;22.80;70.80
61016;DHT22;46902;52.920;6.536;2023-10-08T13:08:55;23.00;70.20
61016;DHT22;46902;52.920;6.536;2023-10-08T13:11:22;23.10;69.10
61016;DHT22;46902;52.920;6.536;2023-10-08T13:13:52;23.30;70.20
61016;DHT22;46902;52.920;6.536;2023-10-08T13:16:19;23.30;67.90
61016;DHT22;46902;52.920;6.536;2023-10-08T13:18:47;23.20;68.50
61016;DHT22;46902;52.920;6.536;2023-10-08T13:21:13;23.20;69.50
61016;DHT22;46902;52.920;6.536;2023-10-08T13:23:39;23.00;69.90
61016;DHT22;46902;52.920;6.536;2023-10-08T13:26:05;23.00;69.50
61016;DHT22;46902;52.920;6.536;2023-10-08T13:28:35;23.10;69.70
61016;DHT22;46902;52.920;6.536;2023-10-08T13:31:02;23.20;69.90
61016;DHT22;46902;52.920;6.536;2023-10-08T13:33:41;23.30;69.30
61016;DHT22;46902;52.920;6.536;2023-10-08T13:36:14;23.10;69.60
61016;DHT22;46902;52.920;6.536;2023-10-08T13:38:41;22.70;70.00
61016;DHT22;46902;52.920;6.536;2023-10-08T13:41:07;22.30;71.00
61016;DHT22;46902;52.920;6.536;2023-10-08T13:43:50;22.00;71.50
61016;DHT22;46902;52.920;6.536;2023-10-08T13:46:20;21.70;72.50
61016;DHT22;46902;52.920;6.536;2023-10-08T13:48:48;21.40;72.60
61016;DHT22;46902;52.920;6.536;2023-10-08T13:51:16;21.10;72.90
61016;DHT22;46902;52.920;6.536;2023-10-08T13:54:04;20.80;72.50
61016;DHT22;46902;52.920;6.536;2023-10-08T13:56:34;20.70;73.40
61016;DHT22;46902;52.920;6.536;2023-10-08T13:59:03;20.40;74.50
61016;DHT22;46902;52.920;6.536;2023-10-08T14:01:33;20.20;75.80
61016;DHT22;46902;52.920;6.536;2023-10-08T14:04:00;20.20;76.60
61016;DHT22;46902;52.920;6.536;2023-10-08T14:06:37;20.00;78.40
61016;DHT22;46902;52.920;6.536;2023-10-08T14:09:06;19.90;79.10
61016;DHT22;46902;52.920;6.536;2023-10-08T14:11:38;19.90;80.20
61016;DHT22;46902;52.920;6.536;2023-10-08T14:14:04;19.90;81.50
61016;DHT22;46902;52.920;6.536;2023-10-08T14:16:39;19.80;82.40
61016;DHT22;46902;52.920;6.536;2023-10-08T14:19:08;19.70;83.10
61016;DHT22;46902;52.920;6.536;2023-10-08T14:21:40;19.60;82.90
61016;DHT22;46902;52.920;6.536;2023-10-08T14:24:18;19.50;82.30
61016;DHT22;46902;52.920;6.536;2023-10-08T14:26:44;19.50;83.80
61016;DHT22;46902;52.920;6.536;2023-10-08T14:29:17;19.40;83.50
61016;DHT22;46902;52.920;6.536;2023-10-08T14:31:43;19.30;84.00
61016;DHT22;46902;52.920;6.536;2023-10-08T14:34:14;19.30;85.50
61016;DHT22;46902;52.920;6.536;2023-10-08T14:36:44;19.20;87.10
61016;DHT22;46902;52.920;6.536;2023-10-08T14:39:28;19.20;86.70
61016;DHT22;46902;52.920;6.536;2023-10-08T14:42:12;19.10;86.20
61016;DHT22;46902;52.920;6.536;2023-10-08T14:44:56;19.00;87.50
61016;DHT22;46902;52.920;6.536;2023-10-08T14:47:22;18.90;88.10
61016;DHT22;46902;52.920;6.536;2023-10-08T14:49:48;18.90;87.90
61016;DHT22;46902;52.920;6.536;2023-10-08T14:52:13;18.80;87.80
61016;DHT22;46902;52.920;6.536;2023-10-08T14:54:39;18.80;88.40
61016;DHT22;46902;52.920;6.536;2023-10-08T14:57:07;18.80;90.00
61016;DHT22;46902;52.920;6.536;2023-10-08T14:59:32;18.80;90.00
61016;DHT22;46902;52.920;6.536;2023-10-08T15:01:58;18.70;90.10
61016;DHT22;46902;52.920;6.536;2023-10-08T15:04:24;18.70;91.20
61016;DHT22;46902;52.920;6.536;2023-10-08T15:06:52;18.70;91.30
61016;DHT22;46902;52.920;6.536;2023-10-08T15:09:17;18.70;91.30
61016;DHT22;46902;52.920;6.536;2023-10-08T15:11:52;18.60;91.20
61016;DHT22;46902;52.920;6.536;2023-10-08T15:14:21;18.60;91.40
61016;DHT22;46902;52.920;6.536;2023-10-08T15:16:52;18.60;91.80
61016;DHT22;46902;52.920;6.536;2023-10-08T15:19:22;18.60;91.90
61016;DHT22;46902;52.920;6.536;2023-10-08T15:21:48;18.60;92.70
61016;DHT22;46902;52.920;6.536;2023-10-08T15:24:18;18.60;92.30
61016;DHT22;46902;52.920;6.536;2023-10-08T15:26:44;18.60;92.10
61016;DHT22;46902;52.920;6.536;2023-10-08T15:29:10;18.70;92.20
61016;DHT22;46902;52.920;6.536;2023-10-08T15:31:38;18.70;92.20
61016;DHT22;46902;52.920;6.536;2023-10-08T15:34:06;18.70;92.50
61016;DHT22;46902;52.920;6.536;2023-10-08T15:36:31;18.70;92.90
61016;DHT22;46902;52.920;6.536;2023-10-08T15:38:58;18.70;92.80
61016;DHT22;46902;52.920;6.536;2023-10-08T15:41:24;18.60;92.70
61016;DHT22;46902;52.920;6.536;2023-10-08T15:43:53;18.60;92.80
61016;DHT22;46902;52.920;6.536;2023-10-08T15:46:24;18.60;92.40
61016;DHT22;46902;52.920;6.536;2023-10-08T15:48:52;18.50;92.30
61016;DHT22;46902;52.920;6.536;2023-10-08T15:51:17;18.50;92.10
61016;DHT22;46902;52.920;6.536;2023-10-08T15:53:43;18.40;92.50
61016;DHT22;46902;52.920;6.536;2023-10-08T15:56:09;18.40;93.00
61016;DHT22;46902;52.920;6.536;2023-10-08T15:58:34;18.30;93.20
61016;DHT22;46902;52.920;6.536;2023-10-08T16:01:00;18.20;93.40
61016;DHT22;46902;52.920;6.536;2023-10-08T16:03:25;18.20;93.80
61016;DHT22;46902;52.920;6.536;2023-10-08T16:05:51;18.10;93.90
61016;DHT22;46902;52.920;6.536;2023-10-08T16:08:17;18.00;94.20
61016;DHT22;46902;52.920;6.536;2023-10-08T16:10:43;18.00;94.30